Xativa, Spain
Current Conditions -  °F | °C
As of 3:30 AM on Sunday 21 Dec 2014 (Local Time) from LEVC Reporting Station
Haze Haze  
Wind Chill: 43°   Ceiling: Unl
Heat Index: 43°   Visibility: 3mi
Dew Point: 43°   Wind: 2mph
Humidity: 100%   Direction: NA
Pressure: 30.45"   Gusts: NA
Location:  38.99°N, 0.52°W
Report Text: LEVC 210230Z VRB02KT 5000 BR NSC 06/06 Q1031 NOSIG
Loading
Personal Weather Stations






























Interactive Weather Map New forecast layout! Learn more

10-Day Weather Forecast

Advertisements
Track Severe Weather on mobile